createdAt,value
2019-01-08T00:00:46.075Z,514.09
2019-01-08T00:01:46.079Z,517.19
2019-01-08T00:02:46.107Z,512.90
2019-01-08T00:03:46.087Z,517.38
2019-01-08T00:04:46.108Z,512.96
2019-01-08T00:05:46.041Z,514.94
2019-01-08T00:06:46.078Z,516.22
2019-01-08T00:07:46.015Z,514.93
2019-01-08T00:08:46.000Z,508.65
2019-01-08T00:09:46.011Z,499.32
2019-01-08T00:10:45.970Z,507.18
2019-01-08T00:11:45.948Z,511.28
2019-01-08T00:12:56.035Z,505.24
2019-01-08T00:13:54.685Z,514.86
2019-01-08T00:14:55.664Z,509.00
2019-01-08T00:15:54.168Z,517.44
2019-01-08T00:20:09.159Z,506.11
2019-01-08T00:21:09.497Z,517.29
2019-01-08T00:22:09.124Z,512.79
2019-01-08T00:23:09.013Z,513.93
2019-01-08T00:24:09.241Z,501.51
2019-01-08T00:25:08.961Z,515.14
2019-01-08T00:26:08.956Z,517.19
2019-01-08T00:27:08.931Z,512.86
2019-01-08T00:28:08.891Z,511.16
2019-01-08T00:29:08.918Z,501.94
2019-01-08T00:30:09.365Z,506.00
2019-01-08T00:31:08.891Z,515.40
2019-01-08T00:32:08.869Z,518.99
2019-01-08T00:33:17.958Z,517.27
2019-01-08T00:34:09.069Z,513.53
2019-01-08T00:35:08.897Z,515.76
2019-01-08T00:36:08.892Z,513.88
2019-01-08T00:37:08.943Z,514.02
2019-01-08T00:38:08.846Z,515.42
2019-01-08T00:39:08.827Z,507.45
2019-01-08T00:40:08.820Z,518.71
2019-01-08T00:41:08.769Z,513.62
2019-01-08T00:42:08.856Z,515.43
2019-01-08T00:43:08.758Z,514.12
2019-01-08T00:44:08.763Z,517.13
2019-01-08T00:45:08.760Z,515.76
2019-01-08T00:46:08.746Z,514.28
2019-01-08T00:47:08.725Z,515.86
2019-01-08T00:48:09.386Z,505.46
2019-01-08T00:49:08.753Z,514.53
2019-01-08T00:50:08.698Z,517.10
2019-01-08T00:51:08.704Z,503.49
2019-01-08T00:52:08.689Z,519.12
2019-01-08T00:53:08.651Z,516.48
2019-01-08T00:54:08.633Z,512.11
2019-01-08T00:55:09.363Z,514.67
2019-01-08T00:56:08.646Z,511.21
2019-01-08T00:57:08.621Z,510.06
2019-01-08T00:58:08.617Z,512.74
2019-01-08T00:59:17.262Z,515.36
2019-01-08T01:00:16.749Z,514.50
2019-01-08T01:01:15.718Z,508.78
2019-01-08T01:02:09.698Z,512.75
2019-01-08T01:05:29.956Z,501.09
2019-01-08T01:06:39.963Z,514.97
2019-01-08T01:07:38.789Z,512.36
2019-01-08T01:08:37.958Z,512.72
2019-01-08T01:09:38.042Z,503.79
2019-01-08T01:10:38.847Z,513.82
2019-01-08T01:11:38.872Z,516.29
2019-01-08T01:12:38.414Z,516.50
2019-01-08T01:13:38.660Z,513.16
2019-01-08T01:14:37.995Z,512.78
2019-01-08T01:15:37.433Z,511.86
2019-01-08T01:16:30.159Z,511.35
2019-01-08T01:17:29.739Z,504.67
2019-01-08T01:18:29.775Z,516.25
2019-01-08T01:19:29.675Z,512.62
2019-01-08T01:20:29.673Z,515.70
2019-01-08T01:21:29.673Z,514.93
2019-01-08T01:22:29.633Z,510.14
2019-01-08T01:23:29.631Z,513.27
2019-01-08T01:24:29.630Z,515.49
2019-01-08T01:25:29.626Z,501.22
2019-01-08T01:26:29.624Z,515.13
2019-01-08T01:27:29.591Z,515.22
2019-01-08T01:28:29.572Z,514.84
2019-01-08T01:29:29.550Z,514.94
2019-01-08T01:30:29.566Z,510.91
2019-01-08T01:31:29.564Z,509.27
2019-01-08T01:32:29.542Z,514.99
2019-01-08T01:33:29.536Z,512.41
2019-01-08T01:34:29.540Z,513.72
2019-01-08T01:35:29.547Z,514.52
2019-01-08T01:36:36.790Z,508.90
2019-01-08T01:37:37.994Z,511.65
2019-01-08T01:38:37.513Z,514.06
2019-01-08T01:39:37.499Z,514.90
2019-01-08T01:41:47.106Z,505.30
2019-01-08T01:44:10.693Z,511.82
2019-01-08T01:45:10.587Z,517.54
2019-01-08T01:46:10.583Z,511.20
2019-01-08T01:47:13.462Z,512.84
2019-01-08T01:48:12.576Z,503.97
2019-01-08T01:49:11.364Z,510.35
2019-01-08T01:50:11.144Z,513.38
2019-01-08T01:51:10.619Z,514.78
2019-01-08T01:52:10.653Z,514.23
2019-01-08T01:53:11.140Z,508.57
2019-01-08T01:54:10.540Z,508.64
2019-01-08T01:55:11.055Z,510.07
2019-01-08T01:56:10.645Z,514.29
2019-01-08T02:03:15.147Z,507.37
2019-01-08T02:04:25.342Z,511.21
2019-01-08T02:06:33.083Z,503.50
2019-01-08T02:07:42.079Z,511.31
2019-01-08T02:08:33.043Z,510.86
2019-01-08T02:09:41.381Z,510.37
2019-01-08T02:10:41.331Z,506.63
2019-01-08T02:12:50.610Z,505.11
2019-01-08T02:13:50.659Z,509.93
2019-01-08T02:14:50.550Z,510.73
2019-01-08T02:15:51.421Z,510.37
2019-01-08T02:16:50.623Z,502.58
2019-01-08T02:17:50.622Z,513.93
2019-01-08T02:18:50.651Z,511.16
2019-01-08T02:19:50.613Z,507.65
2019-01-08T02:20:50.556Z,508.47
2019-01-08T02:21:50.592Z,512.73
2019-01-08T02:22:50.558Z,509.20
2019-01-08T02:23:50.608Z,512.62
2019-01-08T02:24:50.627Z,513.90
2019-01-08T02:25:50.531Z,512.05
2019-01-08T02:26:50.500Z,509.16
2019-01-08T02:29:16.328Z,499.95
2019-01-08T02:30:09.158Z,511.00
2019-01-08T02:31:08.174Z,503.21
2019-01-08T02:32:08.053Z,511.52
2019-01-08T02:33:08.962Z,512.52
2019-01-08T02:34:08.060Z,509.85
2019-01-08T02:35:08.124Z,511.25
2019-01-08T02:36:08.043Z,509.11
2019-01-08T02:37:08.008Z,511.46
2019-01-08T02:38:08.143Z,511.63
2019-01-08T02:39:07.981Z,511.63
2019-01-08T02:40:08.090Z,514.61
2019-01-08T02:41:09.959Z,514.21
2019-01-08T02:42:09.974Z,510.62
2019-01-08T02:43:07.906Z,511.21
2019-01-08T02:44:08.111Z,510.25
2019-01-08T02:45:07.928Z,510.83
2019-01-08T02:46:08.129Z,509.42
2019-01-08T02:47:15.912Z,509.96
2019-01-08T02:48:07.873Z,509.72
2019-01-08T02:49:07.955Z,510.99
2019-01-08T02:50:07.859Z,512.59
2019-01-08T02:51:07.823Z,510.12
2019-01-08T02:52:07.871Z,506.71
2019-01-08T02:53:07.896Z,503.05
2019-01-08T02:54:07.786Z,506.78
2019-01-08T02:55:07.833Z,512.21
2019-01-08T02:56:07.800Z,502.54
2019-01-08T02:57:07.822Z,513.04
2019-01-08T02:58:07.824Z,509.45
2019-01-08T02:59:07.815Z,511.98
2019-01-08T03:00:07.731Z,510.61
2019-01-08T03:01:07.783Z,510.71
2019-01-08T03:02:07.809Z,514.48
2019-01-08T03:03:07.728Z,512.34
2019-01-08T03:04:07.734Z,505.10
2019-01-08T03:05:07.753Z,510.50
2019-01-08T03:06:07.691Z,509.20
2019-01-08T03:07:07.705Z,510.86
2019-01-08T03:08:07.662Z,511.63
2019-01-08T03:09:07.686Z,505.83
2019-01-08T03:10:15.645Z,512.14
2019-01-08T03:11:18.445Z,512.54
2019-01-08T03:13:24.504Z,504.41
2019-01-08T03:14:33.504Z,512.60
2019-01-08T03:15:33.078Z,499.75
2019-01-08T03:16:32.537Z,500.01
2019-01-08T03:17:32.520Z,501.72
2019-01-08T03:18:24.465Z,502.28
2019-01-08T03:19:24.435Z,516.87
2019-01-08T03:20:25.083Z,502.80
2019-01-08T03:21:25.426Z,508.43
2019-01-08T03:22:24.554Z,512.95
2019-01-08T03:23:24.397Z,501.86
2019-01-08T03:24:24.401Z,504.23
2019-01-08T03:25:24.392Z,512.82
2019-01-08T03:26:25.255Z,509.34
2019-01-08T03:27:25.221Z,511.11
2019-01-08T03:28:24.368Z,504.69
2019-01-08T03:29:33.318Z,502.28
2019-01-08T03:31:46.223Z,505.82
2019-01-08T03:32:46.840Z,509.91
2019-01-08T03:33:46.168Z,510.47
2019-01-08T03:34:46.176Z,506.67
2019-01-08T03:35:46.947Z,506.44
2019-01-08T03:36:46.178Z,507.83
2019-01-08T03:37:46.426Z,506.85
2019-01-08T03:38:47.846Z,512.50
2019-01-08T03:39:46.193Z,513.95
2019-01-08T03:40:46.213Z,502.23
2019-01-08T03:41:46.147Z,501.59
2019-01-08T03:42:46.279Z,513.83
2019-01-08T03:43:46.168Z,514.33
2019-01-08T03:44:46.252Z,505.81
2019-01-08T03:45:46.148Z,500.16
2019-01-08T03:46:47.105Z,508.28
2019-01-08T03:47:46.085Z,516.91
2019-01-08T03:48:46.154Z,517.08
2019-01-08T03:49:46.155Z,504.24
2019-01-08T03:50:46.193Z,506.81
2019-01-08T03:51:46.114Z,507.00
2019-01-08T03:54:04.643Z,495.33
2019-01-08T03:55:04.629Z,513.24
2019-01-08T03:56:07.430Z,511.65
2019-01-08T03:57:04.731Z,511.60
2019-01-08T03:58:04.904Z,509.99
2019-01-08T03:59:04.638Z,510.81
2019-01-08T04:00:04.695Z,499.93
2019-01-08T04:01:04.569Z,506.63
2019-01-08T04:02:05.538Z,513.37
2019-01-08T04:03:05.467Z,516.06
2019-01-08T04:04:04.526Z,500.20
2019-01-08T04:05:04.665Z,503.16
2019-01-08T04:06:04.526Z,512.47
2019-01-08T04:07:04.527Z,510.01
2019-01-08T04:08:04.544Z,511.37
2019-01-08T04:09:04.792Z,512.91
2019-01-08T04:10:04.526Z,505.32
2019-01-08T04:11:04.521Z,504.44
2019-01-08T04:12:05.453Z,510.62
2019-01-08T04:13:04.485Z,502.34
2019-01-08T04:14:04.463Z,508.54
2019-01-08T04:15:04.388Z,511.87
2019-01-08T04:16:04.429Z,508.23
2019-01-08T04:17:04.446Z,512.07
2019-01-08T04:18:04.420Z,510.24
2019-01-08T04:19:04.373Z,510.19
2019-01-08T04:20:04.361Z,511.27
2019-01-08T04:21:04.341Z,508.71
2019-01-08T04:22:12.309Z,501.44
2019-01-08T04:23:04.318Z,511.57
2019-01-08T04:24:04.957Z,515.45
2019-01-08T04:25:05.034Z,511.53
2019-01-08T04:26:04.255Z,512.76
2019-01-08T04:27:04.324Z,514.00
2019-01-08T04:28:04.356Z,509.05
2019-01-08T04:29:04.251Z,510.54
2019-01-08T04:30:04.296Z,507.58
2019-01-08T04:31:04.328Z,514.23
2019-01-08T04:32:04.287Z,513.63
2019-01-08T04:33:04.309Z,505.55
2019-01-08T04:34:04.300Z,503.94
2019-01-08T04:35:05.033Z,514.25
2019-01-08T04:36:04.202Z,516.00
2019-01-08T04:37:05.015Z,505.90
2019-01-08T04:38:04.275Z,509.87
2019-01-08T04:39:04.242Z,512.09
2019-01-08T04:40:04.202Z,512.30
2019-01-08T04:41:04.151Z,510.60
2019-01-08T04:42:04.163Z,515.70
2019-01-08T04:43:04.155Z,505.34
2019-01-08T04:44:04.246Z,515.94
2019-01-08T04:45:11.966Z,517.32
2019-01-08T04:48:31.615Z,508.03
2019-01-08T04:49:41.632Z,513.85
2019-01-08T04:50:40.149Z,509.82
2019-01-08T04:51:31.602Z,504.33
2019-01-08T04:52:40.160Z,514.60
2019-01-08T04:55:03.421Z,515.43
2019-01-08T04:59:58.894Z,515.27
2019-01-08T05:01:03.280Z,507.86
2019-01-08T05:02:02.352Z,508.66
2019-01-08T05:03:05.290Z,517.77
2019-01-08T05:04:04.293Z,520.91
2019-01-08T05:05:02.300Z,519.98
2019-01-08T05:06:02.310Z,521.00
2019-01-08T05:07:01.854Z,523.52
2019-01-08T05:08:02.356Z,517.08
2019-01-08T05:08:53.319Z,522.22
2019-01-08T05:09:53.248Z,521.53
2019-01-08T05:10:53.478Z,521.94
2019-01-08T05:11:53.211Z,513.73
2019-01-08T05:12:53.368Z,522.38
2019-01-08T05:13:53.296Z,521.09
2019-01-08T05:14:53.942Z,524.90
2019-01-08T05:15:53.288Z,520.53
2019-01-08T05:16:53.206Z,525.18
2019-01-08T05:18:03.541Z,517.91
2019-01-08T05:19:02.284Z,518.19
2019-01-08T05:20:04.703Z,519.37
2019-01-08T05:22:35.579Z,520.94
2019-01-08T05:23:35.639Z,517.94
2019-01-08T05:24:35.615Z,525.99
2019-01-08T05:25:35.562Z,522.95
2019-01-08T05:26:35.531Z,521.24
2019-01-08T05:27:35.610Z,524.66
2019-01-08T05:28:35.628Z,522.66
2019-01-08T05:29:35.614Z,525.21
2019-01-08T05:30:35.551Z,521.39
2019-01-08T05:31:38.101Z,527.03
2019-01-08T05:32:35.479Z,527.17
2019-01-08T05:33:35.521Z,525.33
2019-01-08T05:34:35.421Z,511.08
2019-01-08T05:35:35.535Z,523.60
2019-01-08T05:36:35.435Z,521.12
2019-01-08T05:37:36.069Z,521.22
2019-01-08T05:38:35.428Z,523.37
2019-01-08T05:39:35.439Z,529.76
2019-01-08T05:40:35.396Z,523.63
2019-01-08T05:41:35.439Z,531.04
2019-01-08T05:42:35.332Z,525.14
2019-01-08T05:43:36.574Z,524.70
2019-01-08T05:44:35.340Z,529.87
2019-01-08T05:45:35.307Z,527.97
2019-01-08T05:46:36.090Z,529.10
2019-01-08T05:47:35.281Z,526.92
2019-01-08T05:48:35.668Z,529.83
2019-01-08T05:49:35.461Z,523.32
2019-01-08T05:50:35.245Z,521.55
2019-01-08T05:51:35.300Z,524.27
2019-01-08T05:52:35.329Z,527.51
2019-01-08T05:53:35.277Z,526.60
2019-01-08T05:55:57.814Z,529.10
2019-01-08T05:56:58.289Z,525.63
2019-01-08T05:57:58.023Z,521.74
2019-01-08T05:58:58.749Z,526.09
2019-01-08T05:59:57.798Z,526.40
2019-01-08T06:00:58.795Z,530.09
2019-01-08T06:01:58.783Z,523.71
2019-01-08T06:02:57.696Z,525.53
2019-01-08T06:03:57.744Z,528.03
2019-01-08T06:04:57.707Z,525.32
2019-01-08T06:05:58.256Z,531.43
2019-01-08T06:06:57.806Z,527.46
2019-01-08T06:08:05.744Z,520.77
2019-01-08T06:09:06.757Z,523.74
2019-01-08T06:10:05.257Z,526.56
2019-01-08T06:10:57.787Z,525.68
2019-01-08T06:11:57.662Z,528.73
2019-01-08T06:13:07.271Z,530.27
2019-01-08T06:13:57.692Z,526.59
2019-01-08T06:14:57.686Z,526.60
2019-01-08T06:15:57.639Z,527.91
2019-01-08T06:16:57.679Z,529.22
2019-01-08T06:18:04.688Z,529.55
2019-01-08T06:18:57.887Z,522.23
2019-01-08T06:19:57.773Z,522.15
2019-01-08T06:20:57.579Z,528.99
2019-01-08T06:21:57.643Z,534.67
2019-01-08T06:22:57.554Z,520.00
2019-01-08T06:23:57.499Z,528.02
2019-01-08T06:24:57.490Z,525.58
2019-01-08T06:25:57.585Z,529.39
2019-01-08T06:26:58.369Z,525.22
2019-01-08T06:27:57.555Z,533.28
2019-01-08T06:28:57.476Z,531.52
2019-01-08T06:29:57.444Z,529.65
2019-01-08T06:30:57.429Z,528.26
2019-01-08T06:31:57.470Z,530.16
2019-01-08T06:32:57.423Z,531.94
2019-01-08T06:33:57.436Z,533.91
2019-01-08T06:34:57.397Z,534.41
2019-01-08T06:35:57.409Z,532.26
2019-01-08T06:36:57.437Z,527.92
2019-01-08T06:37:57.327Z,534.09
2019-01-08T06:38:57.386Z,532.52
2019-01-08T06:39:57.367Z,529.92
2019-01-08T06:40:57.960Z,533.14
2019-01-08T06:41:57.297Z,533.88
2019-01-08T06:42:57.279Z,536.42
2019-01-08T06:43:57.267Z,535.34
2019-01-08T06:44:57.817Z,529.13
2019-01-08T06:47:13.860Z,524.48
2019-01-08T06:48:13.886Z,525.41
2019-01-08T06:49:13.971Z,533.61
2019-01-08T06:50:13.939Z,535.91
2019-01-08T06:51:13.784Z,529.27
2019-01-08T06:52:14.794Z,536.23
2019-01-08T06:53:13.999Z,537.57
2019-01-08T06:54:13.834Z,526.62
2019-01-08T06:55:13.849Z,536.68
2019-01-08T06:56:14.754Z,531.29
2019-01-08T06:57:14.695Z,535.83
2019-01-08T06:58:13.729Z,524.28
2019-01-08T06:59:14.856Z,530.81
2019-01-08T07:00:13.813Z,534.51
2019-01-08T07:02:31.464Z,515.15
2019-01-08T07:03:34.532Z,532.53
2019-01-08T07:04:31.447Z,532.09
2019-01-08T07:05:31.379Z,532.58
2019-01-08T07:06:31.213Z,531.34
2019-01-08T07:09:55.257Z,533.25
2019-01-08T07:10:55.109Z,528.52
2019-01-08T07:11:55.004Z,534.43
2019-01-08T07:12:54.990Z,532.18
2019-01-08T07:13:54.956Z,533.50
2019-01-08T07:14:55.110Z,533.06
2019-01-08T07:15:55.017Z,536.26
2019-01-08T07:16:55.872Z,532.67
2019-01-08T07:17:55.103Z,534.18
2019-01-08T07:18:57.878Z,533.17
2019-01-08T07:19:55.888Z,533.43
2019-01-08T07:20:55.796Z,536.53
2019-01-08T07:21:55.107Z,536.80
2019-01-08T07:22:54.918Z,535.39
2019-01-08T07:23:54.949Z,536.19
2019-01-08T07:24:54.882Z,534.65
2019-01-08T07:27:55.858Z,534.85
2019-01-08T07:28:57.110Z,532.02
2019-01-08T07:29:55.662Z,532.98
2019-01-08T07:30:56.366Z,532.61
2019-01-08T07:31:55.777Z,528.47
2019-01-08T07:32:55.481Z,536.48
2019-01-08T07:33:57.228Z,536.68
2019-01-08T07:34:55.432Z,537.18
2019-01-08T07:35:55.432Z,535.20
2019-01-08T07:36:55.390Z,536.13
2019-01-08T07:37:55.409Z,537.08
2019-01-08T07:38:55.395Z,548.61
2019-01-08T07:39:55.417Z,539.77
2019-01-08T07:40:55.381Z,533.68
2019-01-08T07:41:55.371Z,543.15
2019-01-08T07:42:55.321Z,539.61
2019-01-08T07:43:55.616Z,532.23
2019-01-08T07:45:02.882Z,536.65
2019-01-08T07:45:55.289Z,541.39
2019-01-08T07:46:55.303Z,536.56
2019-01-08T07:47:55.287Z,532.06
2019-01-08T07:48:55.262Z,542.48
2019-01-08T07:49:55.270Z,537.15
2019-01-08T07:50:55.272Z,532.92
2019-01-08T07:51:55.227Z,536.05
2019-01-08T07:52:55.214Z,537.36
2019-01-08T07:53:55.224Z,541.36
2019-01-08T07:54:55.220Z,540.02
2019-01-08T07:55:55.194Z,540.83
2019-01-08T07:56:55.193Z,542.69
2019-01-08T07:57:55.184Z,537.80
2019-01-08T07:58:55.836Z,540.43
2019-01-08T07:59:55.174Z,542.12
2019-01-08T08:00:55.195Z,543.17
2019-01-08T08:01:55.136Z,539.93
2019-01-08T08:02:55.140Z,536.99
2019-01-08T08:03:55.137Z,544.62
2019-01-08T08:04:55.155Z,544.53
2019-01-08T08:05:55.114Z,537.62
2019-01-08T08:06:55.091Z,539.48
2019-01-08T08:07:55.077Z,535.60
2019-01-08T08:08:55.075Z,542.36
2019-01-08T08:09:55.115Z,544.12
2019-01-08T08:10:55.031Z,540.55
2019-01-08T08:11:55.029Z,541.53
2019-01-08T08:12:55.025Z,539.31
2019-01-08T08:13:55.013Z,542.84
2019-01-08T08:14:55.014Z,544.34
2019-01-08T08:15:55.002Z,541.39
2019-01-08T08:16:54.972Z,541.27
2019-01-08T08:17:54.979Z,540.33
2019-01-08T08:18:54.964Z,541.20
2019-01-08T08:19:54.972Z,540.89
2019-01-08T08:20:54.931Z,539.20
2019-01-08T08:21:54.913Z,540.41
2019-01-08T08:22:54.907Z,538.23
2019-01-08T08:23:56.878Z,546.05
2019-01-08T08:24:55.892Z,540.01
2019-01-08T08:25:54.904Z,544.89
2019-01-08T08:26:54.895Z,536.87
2019-01-08T08:27:54.842Z,546.92
2019-01-08T08:28:55.849Z,544.45
2019-01-08T08:29:54.858Z,536.37
2019-01-08T08:30:58.906Z,543.89
2019-01-08T08:31:54.830Z,543.82
2019-01-08T08:32:54.820Z,544.75
2019-01-08T08:33:54.781Z,542.91
2019-01-08T08:34:54.841Z,545.12
2019-01-08T08:35:54.843Z,547.03
2019-01-08T08:36:54.859Z,543.95
2019-01-08T08:37:54.784Z,547.69
2019-01-08T08:38:54.753Z,540.79
2019-01-08T08:40:02.808Z,546.03
2019-01-08T08:41:02.776Z,540.90
2019-01-08T08:41:54.707Z,544.39
2019-01-08T08:43:02.809Z,543.86
2019-01-08T08:44:02.747Z,544.56
2019-01-08T08:49:35.273Z,538.81
2019-01-08T08:50:43.335Z,544.91
2019-01-08T08:51:42.204Z,545.77
2019-01-08T08:52:42.216Z,541.71
2019-01-08T08:53:42.209Z,541.87
2019-01-08T08:54:42.219Z,546.91
2019-01-08T08:55:35.156Z,543.54
2019-01-08T08:56:35.177Z,541.40
2019-01-08T08:57:35.119Z,544.44
2019-01-08T08:58:35.089Z,543.45
2019-01-08T08:59:35.066Z,543.24
2019-01-08T09:00:35.074Z,542.89
2019-01-08T09:01:35.050Z,546.59
2019-01-08T09:02:35.055Z,543.53
2019-01-08T09:03:35.044Z,537.37
2019-01-08T09:04:35.020Z,542.50
2019-01-08T09:05:35.018Z,547.18
2019-01-08T09:06:35.685Z,542.04
2019-01-08T09:07:42.088Z,540.97
2019-01-08T09:08:34.978Z,546.39
2019-01-08T09:09:34.992Z,547.49
2019-01-08T09:10:34.962Z,545.84
2019-01-08T09:11:34.943Z,544.93
2019-01-08T09:12:34.931Z,539.22
2019-01-08T09:13:34.936Z,538.22
2019-01-08T09:14:34.915Z,541.91
2019-01-08T09:15:34.935Z,542.31
2019-01-08T09:16:34.883Z,539.00
2019-01-08T09:17:34.890Z,543.91
2019-01-08T09:18:34.886Z,540.91
2019-01-08T09:19:34.878Z,544.43
2019-01-08T09:20:34.891Z,530.41
2019-01-08T09:21:34.908Z,539.67
2019-01-08T09:22:34.837Z,538.20
2019-01-08T09:23:34.831Z,548.40
2019-01-08T09:24:34.806Z,540.41
2019-01-08T09:25:35.696Z,546.49
2019-01-08T09:26:34.809Z,540.72
2019-01-08T09:27:34.788Z,544.51
2019-01-08T09:28:34.770Z,541.37
2019-01-08T09:29:34.750Z,543.98
2019-01-08T09:30:34.767Z,548.16
2019-01-08T09:31:34.758Z,542.02
2019-01-08T09:32:34.728Z,542.86
2019-01-08T09:33:34.729Z,544.00
2019-01-08T09:34:34.734Z,541.78
2019-01-08T09:35:34.712Z,547.03
2019-01-08T09:36:34.679Z,543.84
2019-01-08T09:37:34.679Z,543.80
2019-01-08T09:38:34.662Z,543.44
2019-01-08T09:39:34.670Z,545.41
2019-01-08T09:40:34.643Z,544.87
2019-01-08T09:41:34.617Z,539.88
2019-01-08T09:42:34.612Z,544.25
2019-01-08T09:43:34.627Z,544.07
2019-01-08T09:44:34.594Z,543.39
2019-01-08T09:45:34.606Z,543.84
2019-01-08T09:46:34.577Z,541.28
2019-01-08T09:47:34.560Z,540.23
2019-01-08T09:48:34.558Z,542.14
2019-01-08T09:49:34.552Z,541.97
2019-01-08T09:50:34.561Z,534.58
2019-01-08T09:51:34.535Z,545.40
2019-01-08T09:52:34.518Z,541.02
2019-01-08T09:53:34.504Z,537.34
2019-01-08T09:54:34.492Z,541.98
2019-01-08T09:55:34.498Z,546.09
2019-01-08T09:56:34.468Z,544.23
2019-01-08T09:57:34.465Z,545.54
2019-01-08T09:58:34.445Z,547.39
2019-01-08T09:59:35.557Z,542.69
2019-01-08T10:00:34.455Z,542.57
2019-01-08T10:01:34.429Z,543.91
2019-01-08T10:02:34.412Z,541.52
2019-01-08T10:03:34.406Z,538.25
2019-01-08T10:04:34.378Z,546.33
2019-01-08T10:05:34.375Z,537.95
2019-01-08T10:06:34.385Z,546.47
2019-01-08T10:07:34.351Z,535.90
2019-01-08T10:08:34.343Z,538.24
2019-01-08T10:09:34.324Z,538.95
2019-01-08T10:10:34.319Z,544.29
2019-01-08T10:11:34.335Z,533.00
2019-01-08T10:12:34.322Z,538.74
2019-01-08T10:13:34.285Z,543.24
2019-01-08T10:14:34.277Z,542.67
2019-01-08T10:15:34.268Z,545.50
2019-01-08T10:16:34.745Z,540.48
2019-01-08T10:17:35.196Z,545.74
2019-01-08T10:18:34.255Z,545.92
2019-01-08T10:19:34.266Z,541.70
2019-01-08T10:20:34.242Z,542.78
2019-01-08T10:21:34.237Z,533.55
2019-01-08T10:22:34.217Z,541.12
2019-01-08T10:23:34.695Z,541.55
2019-01-08T10:24:34.209Z,542.44
2019-01-08T10:25:34.172Z,540.39
2019-01-08T10:26:34.209Z,535.79
2019-01-08T10:27:34.155Z,542.33
2019-01-08T10:28:34.137Z,542.31
2019-01-08T10:29:34.121Z,545.60
2019-01-08T10:30:34.131Z,539.54
2019-01-08T10:31:34.147Z,540.74
2019-01-08T10:32:34.135Z,545.79
2019-01-08T10:33:34.097Z,540.85
2019-01-08T10:34:34.100Z,538.75
2019-01-08T10:35:34.070Z,538.96
2019-01-08T10:36:34.066Z,539.83
2019-01-08T10:37:34.073Z,540.20
2019-01-08T10:38:34.065Z,541.79
2019-01-08T10:39:34.049Z,545.63
2019-01-08T10:40:34.032Z,540.31
2019-01-08T10:41:34.041Z,538.73
2019-01-08T10:42:34.016Z,532.78
2019-01-08T10:43:34.027Z,543.05
2019-01-08T10:44:34.012Z,542.11
2019-01-08T10:45:34.559Z,543.78
2019-01-08T10:46:37.553Z,538.99
2019-01-08T10:47:33.953Z,546.26
2019-01-08T10:48:33.939Z,542.40
2019-01-08T10:49:33.916Z,540.52
2019-01-08T10:50:33.896Z,544.86
2019-01-08T10:51:33.919Z,530.90
2019-01-08T10:52:33.890Z,543.80
2019-01-08T10:53:33.872Z,539.83
2019-01-08T10:54:33.873Z,528.11
2019-01-08T10:55:33.871Z,541.53
2019-01-08T10:56:33.847Z,542.53
2019-01-08T10:57:33.828Z,537.41
2019-01-08T10:58:33.830Z,539.33
2019-01-08T10:59:33.854Z,535.29
2019-01-08T11:00:33.842Z,543.30
2019-01-08T11:01:40.472Z,531.83
2019-01-08T11:02:34.781Z,544.86
2019-01-08T11:03:33.782Z,541.47
2019-01-08T11:04:33.777Z,542.72
2019-01-08T11:05:33.765Z,532.24
2019-01-08T11:06:33.784Z,541.25
2019-01-08T11:07:33.731Z,542.19
2019-01-08T11:08:33.716Z,541.65
2019-01-08T11:09:33.740Z,529.78
2019-01-08T11:10:33.726Z,537.70
2019-01-08T11:11:34.450Z,544.66
2019-01-08T11:12:33.676Z,534.22
2019-01-08T11:13:33.656Z,536.71
2019-01-08T11:14:33.680Z,538.97
2019-01-08T11:15:33.648Z,538.44
2019-01-08T11:16:33.749Z,537.75
2019-01-08T11:17:33.648Z,536.63
2019-01-08T11:18:33.628Z,533.46
2019-01-08T11:19:33.603Z,536.33
2019-01-08T11:20:33.599Z,534.26
2019-01-08T11:21:33.600Z,530.63
2019-01-08T11:22:33.576Z,536.93
2019-01-08T11:23:33.565Z,533.72
2019-01-08T11:24:33.587Z,534.70
2019-01-08T11:25:33.543Z,542.29
2019-01-08T11:26:33.544Z,537.66
2019-01-08T11:27:33.535Z,540.15
2019-01-08T11:28:33.544Z,535.56
2019-01-08T11:29:33.524Z,534.20
2019-01-08T11:30:33.495Z,535.54
2019-01-08T11:31:33.504Z,534.41
2019-01-08T11:32:33.471Z,544.56
2019-01-08T11:33:33.473Z,539.04
2019-01-08T11:34:33.452Z,528.58
2019-01-08T11:35:33.489Z,538.68
2019-01-08T11:36:33.467Z,531.90
2019-01-08T11:37:33.432Z,541.75
2019-01-08T11:38:33.413Z,541.41
2019-01-08T11:39:33.399Z,535.73
2019-01-08T11:40:33.387Z,538.73
2019-01-08T11:41:33.407Z,535.86
2019-01-08T11:42:33.349Z,538.24
2019-01-08T11:43:33.355Z,539.06
2019-01-08T11:44:33.337Z,536.66
2019-01-08T11:45:33.333Z,545.28
2019-01-08T11:46:33.408Z,530.59
2019-01-08T11:47:33.304Z,531.53
2019-01-08T11:48:33.292Z,532.75
2019-01-08T11:49:33.279Z,532.22
2019-01-08T11:50:33.267Z,536.18
2019-01-08T11:51:33.284Z,530.65
2019-01-08T11:52:33.291Z,537.19
2019-01-08T11:53:33.238Z,533.93
2019-01-08T11:54:40.619Z,536.63
2019-01-08T11:55:34.220Z,535.88
2019-01-08T11:56:33.234Z,533.97
2019-01-08T11:57:33.211Z,532.19
2019-01-08T11:58:33.212Z,534.05
2019-01-08T11:59:33.181Z,526.15
2019-01-08T12:00:33.159Z,535.25
2019-01-08T12:01:33.165Z,529.80
2019-01-08T12:02:47.622Z,532.33
2019-01-08T12:03:34.148Z,531.09
2019-01-08T12:04:33.135Z,539.53
2019-01-08T12:05:33.130Z,533.43
2019-01-08T12:06:33.139Z,535.11
2019-01-08T12:07:33.081Z,532.69
2019-01-08T12:08:33.092Z,530.95
2019-01-08T12:09:33.155Z,538.85
2019-01-08T12:10:33.081Z,527.91
2019-01-08T12:11:33.096Z,532.92
2019-01-08T12:12:33.089Z,536.16
2019-01-08T12:13:33.066Z,531.22
2019-01-08T12:14:33.023Z,527.04
2019-01-08T12:15:33.031Z,522.79
2019-01-08T12:16:33.029Z,527.74
2019-01-08T12:17:33.014Z,532.90
2019-01-08T12:18:32.992Z,532.09
2019-01-08T12:19:32.983Z,531.68
2019-01-08T12:20:32.952Z,537.27
2019-01-08T12:21:32.968Z,533.43
2019-01-08T12:22:40.624Z,522.33
2019-01-08T12:23:33.943Z,537.54
2019-01-08T12:24:32.914Z,535.29
2019-01-08T12:25:32.893Z,534.92
2019-01-08T12:26:32.890Z,529.44
2019-01-08T12:27:32.915Z,527.44
2019-01-08T12:28:32.890Z,535.54
2019-01-08T12:29:32.883Z,530.09
2019-01-08T12:30:32.853Z,530.02
2019-01-08T12:31:32.880Z,528.03
2019-01-08T12:32:40.972Z,522.91
2019-01-08T12:33:32.821Z,538.17
2019-01-08T12:34:32.821Z,532.58
2019-01-08T12:35:32.820Z,530.44
2019-01-08T12:36:39.836Z,527.30
2019-01-08T12:37:32.809Z,527.39
2019-01-08T12:38:32.773Z,527.85
2019-01-08T12:39:32.752Z,527.38
2019-01-08T12:40:32.747Z,531.47
2019-01-08T12:41:32.734Z,531.41
2019-01-08T12:42:32.738Z,529.12
2019-01-08T12:43:32.710Z,540.88
2019-01-08T12:44:33.282Z,534.67
2019-01-08T12:45:32.682Z,529.41
2019-01-08T12:46:32.684Z,533.09
2019-01-08T12:47:32.689Z,533.44
2019-01-08T12:48:32.646Z,538.99
2019-01-08T12:49:32.643Z,529.93
2019-01-08T12:50:32.636Z,528.84
2019-01-08T12:51:32.620Z,529.08
2019-01-08T12:52:32.644Z,522.42
2019-01-08T12:53:32.613Z,525.45
2019-01-08T12:54:32.604Z,526.54
2019-01-08T12:55:32.581Z,526.11
2019-01-08T12:56:32.575Z,526.44
2019-01-08T12:57:32.583Z,530.42
2019-01-08T12:58:32.568Z,532.53
2019-01-08T12:59:32.540Z,525.76
2019-01-08T13:00:32.536Z,529.42
2019-01-08T13:01:32.509Z,532.04
2019-01-08T13:02:32.526Z,530.01
2019-01-08T13:03:32.492Z,529.11
2019-01-08T13:04:32.492Z,528.58
2019-01-08T13:05:32.465Z,529.18
2019-01-08T13:06:32.454Z,526.86
2019-01-08T13:07:32.460Z,524.00
2019-01-08T13:08:32.441Z,530.32
2019-01-08T13:09:32.443Z,525.26
2019-01-08T13:10:32.431Z,520.58
2019-01-08T13:11:32.412Z,524.70
2019-01-08T13:12:32.433Z,526.03
2019-01-08T13:13:32.384Z,521.12